createdAt,value
2022-09-17T00:01:41.047Z,0.75
2022-09-17T00:04:09.152Z,0.98
2022-09-17T00:06:38.124Z,1.00
2022-09-17T00:09:08.913Z,1.30
2022-09-17T00:11:40.425Z,1.05
2022-09-17T00:14:14.258Z,1.30
2022-09-17T00:16:47.873Z,1.00
2022-09-17T00:19:19.196Z,0.80
2022-09-17T00:21:48.741Z,0.50
2022-09-17T00:24:19.419Z,1.30
2022-09-17T00:26:47.857Z,0.80
2022-09-17T00:29:16.306Z,0.90
2022-09-17T00:31:44.748Z,1.02
2022-09-17T00:34:13.013Z,1.07
2022-09-17T00:36:41.612Z,0.85
2022-09-17T00:39:12.400Z,0.82
2022-09-17T00:41:41.845Z,0.95
2022-09-17T00:44:48.046Z,1.17
2022-09-17T00:47:24.307Z,0.80
2022-09-17T00:49:58.609Z,0.85
2022-09-17T00:52:34.058Z,0.93
2022-09-17T00:55:12.981Z,0.80
2022-09-17T00:57:43.385Z,0.93
2022-09-17T01:00:14.141Z,1.05
2022-09-17T01:02:43.809Z,0.93
2022-09-17T01:05:13.892Z,1.20
2022-09-17T01:08:01.270Z,0.90
2022-09-17T01:11:03.687Z,1.15
2022-09-17T01:13:46.878Z,1.20
2022-09-17T01:16:25.677Z,1.50
2022-09-17T01:19:18.841Z,1.38
2022-09-17T01:21:57.728Z,1.87
2022-09-17T01:24:58.508Z,1.58
2022-09-17T01:28:21.888Z,3.05
2022-09-17T01:31:31.424Z,1.90
2022-09-17T01:34:09.841Z,2.05
2022-09-17T01:36:51.260Z,2.13
2022-09-17T01:39:39.066Z,3.83
2022-09-17T01:42:19.206Z,3.10
2022-09-17T01:44:57.505Z,2.85
2022-09-17T01:47:35.287Z,2.92
2022-09-17T01:50:11.561Z,3.00
2022-09-17T01:52:44.496Z,3.00
2022-09-17T01:55:18.200Z,3.28
2022-09-17T01:57:54.633Z,3.10
2022-09-17T02:00:23.749Z,3.13
2022-09-17T02:03:01.425Z,2.60
2022-09-17T02:05:37.137Z,2.90
2022-09-17T02:08:10.998Z,3.20
2022-09-17T02:10:46.150Z,2.87
2022-09-17T02:13:20.165Z,3.13
2022-09-17T02:15:56.749Z,2.97
2022-09-17T02:18:35.396Z,2.50
2022-09-17T02:21:12.738Z,2.75
2022-09-17T02:23:49.654Z,3.28
2022-09-17T02:26:21.680Z,2.53
2022-09-17T02:28:56.416Z,2.63
2022-09-17T02:31:24.573Z,2.58
2022-09-17T02:34:01.860Z,2.57
2022-09-17T02:36:32.067Z,3.13
2022-09-17T02:39:02.856Z,3.17
2022-09-17T02:41:45.408Z,2.55
2022-09-17T02:44:27.209Z,2.22
2022-09-17T02:47:30.102Z,2.33
2022-09-17T02:50:24.299Z,2.20
2022-09-17T02:53:10.710Z,2.63
2022-09-17T02:55:46.200Z,2.40
2022-09-17T02:58:27.941Z,2.65
2022-09-17T03:01:01.366Z,2.58
2022-09-17T03:03:35.447Z,2.63
2022-09-17T03:06:06.757Z,2.58
2022-09-17T03:08:40.040Z,2.40
2022-09-17T03:11:09.222Z,2.38
2022-09-17T03:13:37.834Z,2.70
2022-09-17T03:16:07.958Z,2.50
2022-09-17T03:18:36.660Z,2.55
2022-09-17T03:21:06.227Z,2.85
2022-09-17T03:23:34.326Z,2.05
2022-09-17T03:26:02.429Z,2.15
2022-09-17T03:28:30.521Z,2.03
2022-09-17T03:30:58.966Z,2.55
2022-09-17T03:33:27.288Z,2.10
2022-09-17T03:35:55.421Z,2.22
2022-09-17T03:38:25.277Z,2.25
2022-09-17T03:41:01.147Z,2.45
2022-09-17T03:43:29.710Z,2.20
2022-09-17T03:45:58.057Z,3.22
2022-09-17T03:48:26.278Z,2.10
2022-09-17T03:50:54.320Z,3.08
2022-09-17T03:53:23.764Z,2.58
2022-09-17T03:55:51.977Z,2.28
2022-09-17T03:58:20.051Z,2.40
2022-09-17T04:00:53.047Z,1.75
2022-09-17T04:03:21.342Z,2.00
2022-09-17T04:05:49.470Z,1.88
2022-09-17T04:08:18.149Z,2.08
2022-09-17T04:10:48.683Z,2.20
2022-09-17T04:13:18.286Z,2.22
2022-09-17T04:15:47.421Z,2.55
2022-09-17T04:18:16.176Z,1.45
2022-09-17T04:20:44.893Z,2.13
2022-09-17T04:23:13.825Z,1.70
2022-09-17T04:25:41.921Z,1.95
2022-09-17T04:28:11.463Z,1.80
2022-09-17T04:30:41.295Z,1.73
2022-09-17T04:33:10.020Z,1.98
2022-09-17T04:35:38.338Z,1.40
2022-09-17T04:38:06.648Z,1.80
2022-09-17T04:40:34.781Z,1.80
2022-09-17T04:43:04.065Z,1.65
2022-09-17T04:45:33.724Z,1.90
2022-09-17T04:48:03.173Z,1.80
2022-09-17T04:50:31.684Z,1.70
2022-09-17T04:52:59.964Z,2.10
2022-09-17T04:55:28.554Z,1.23
2022-09-17T04:57:56.692Z,1.45
2022-09-17T05:00:25.887Z,1.20
2022-09-17T05:02:56.559Z,1.55
2022-09-17T05:05:26.608Z,1.80
2022-09-17T05:07:54.673Z,2.33
2022-09-17T05:10:24.463Z,1.58
2022-09-17T05:12:54.440Z,1.33
2022-09-17T05:15:24.759Z,1.40
2022-09-17T05:17:52.936Z,2.08
2022-09-17T05:20:22.854Z,1.30
2022-09-17T05:22:53.283Z,1.70
2022-09-17T05:25:24.794Z,2.50
2022-09-17T05:27:54.701Z,1.80
2022-09-17T05:30:23.400Z,1.88
2022-09-17T05:33:01.596Z,2.10
2022-09-17T05:35:31.638Z,1.20
2022-09-17T05:38:01.321Z,1.65
2022-09-17T05:40:30.485Z,1.40
2022-09-17T05:43:04.364Z,1.48
2022-09-17T05:45:34.239Z,1.50
2022-09-17T05:48:04.905Z,1.73
2022-09-17T05:50:34.785Z,1.33
2022-09-17T05:53:07.378Z,1.38
2022-09-17T05:55:36.301Z,1.35
2022-09-17T05:58:12.138Z,1.25
2022-09-17T06:00:41.027Z,1.48
2022-09-17T06:03:11.552Z,1.25
2022-09-17T06:05:42.196Z,0.85
2022-09-17T06:08:11.033Z,0.70
2022-09-17T06:10:40.109Z,0.85
2022-09-17T06:13:08.503Z,1.08
2022-09-17T06:15:36.789Z,0.88
2022-09-17T06:18:05.173Z,1.85
2022-09-17T06:20:33.712Z,1.02
2022-09-17T06:23:03.183Z,1.00
2022-09-17T06:25:31.746Z,0.80
2022-09-17T06:27:59.817Z,0.73
2022-09-17T06:30:28.133Z,1.02
2022-09-17T06:32:56.210Z,0.70
2022-09-17T06:35:24.242Z,1.30
2022-09-17T06:37:52.315Z,0.82
2022-09-17T06:40:23.709Z,1.33
2022-09-17T06:42:51.972Z,0.70
2022-09-17T06:45:20.084Z,0.60
2022-09-17T06:47:48.236Z,0.80
2022-09-17T06:50:16.536Z,0.60
2022-09-17T06:52:50.276Z,0.60
2022-09-17T06:55:19.222Z,0.52
2022-09-17T06:57:48.947Z,0.77
2022-09-17T07:00:17.349Z,0.70
2022-09-17T07:02:45.420Z,0.70
2022-09-17T07:05:13.518Z,0.50
2022-09-17T07:07:41.572Z,1.48
2022-09-17T07:10:10.198Z,0.60
2022-09-17T07:12:46.654Z,0.90
2022-09-17T07:15:19.152Z,0.68
2022-09-17T07:17:47.317Z,0.93
2022-09-17T07:20:15.847Z,0.60
2022-09-17T07:22:44.071Z,0.50
2022-09-17T07:25:12.821Z,0.70
2022-09-17T07:27:41.286Z,0.50
2022-09-17T07:30:12.841Z,0.68
2022-09-17T07:32:42.375Z,0.50
2022-09-17T07:35:13.517Z,0.63
2022-09-17T07:37:41.618Z,0.80
2022-09-17T07:40:10.558Z,0.90
2022-09-17T07:42:38.833Z,0.80
2022-09-17T07:45:09.802Z,1.08
2022-09-17T07:47:42.658Z,0.98
2022-09-17T07:50:11.276Z,0.98
2022-09-17T07:52:39.545Z,1.00
2022-09-17T07:55:08.730Z,1.05
2022-09-17T07:57:36.796Z,0.80
2022-09-17T08:00:06.579Z,1.13
2022-09-17T08:02:39.649Z,0.88
2022-09-17T08:05:10.220Z,1.05
2022-09-17T08:07:38.315Z,1.30
2022-09-17T08:10:07.540Z,1.25
2022-09-17T08:12:35.835Z,1.20
2022-09-17T08:15:04.193Z,1.40
2022-09-17T08:17:32.371Z,1.60
2022-09-17T08:20:00.455Z,1.23
2022-09-17T08:22:31.588Z,1.38
2022-09-17T08:24:59.661Z,1.67
2022-09-17T08:27:27.748Z,2.20
2022-09-17T08:29:55.894Z,1.30
2022-09-17T08:32:23.987Z,1.55
2022-09-17T08:34:57.996Z,1.33
2022-09-17T08:37:27.421Z,1.70
2022-09-17T08:39:57.482Z,2.33
2022-09-17T08:42:33.352Z,1.63
2022-09-17T08:45:10.476Z,1.92
2022-09-17T08:47:43.559Z,1.83
2022-09-17T08:50:19.200Z,1.85
2022-09-17T08:53:18.780Z,1.75
2022-09-17T08:55:55.160Z,1.88
2022-09-17T08:59:03.367Z,2.00
2022-09-17T09:01:44.009Z,2.28
2022-09-17T09:04:49.295Z,1.65
2022-09-17T09:07:23.993Z,1.88
2022-09-17T09:10:05.935Z,2.10
2022-09-17T09:12:38.883Z,2.00
2022-09-17T09:15:30.942Z,1.92
2022-09-17T09:18:06.295Z,1.90
2022-09-17T09:20:47.085Z,1.83
2022-09-17T09:23:21.822Z,2.10
2022-09-17T09:26:01.147Z,2.17
2022-09-17T09:29:00.651Z,2.35
2022-09-17T09:32:16.247Z,2.17
2022-09-17T09:34:47.556Z,2.47
2022-09-17T09:37:22.944Z,2.38
2022-09-17T09:39:56.206Z,2.20
2022-09-17T09:42:31.637Z,1.80
2022-09-17T09:45:13.195Z,2.30
2022-09-17T09:47:58.971Z,2.60
2022-09-17T09:51:05.710Z,2.13
2022-09-17T09:53:51.937Z,1.98
2022-09-17T09:56:49.117Z,2.10
2022-09-17T09:59:17.405Z,2.45
2022-09-17T10:01:46.918Z,2.63
2022-09-17T10:04:21.246Z,2.10
2022-09-17T10:06:53.367Z,2.45
2022-09-17T10:09:23.039Z,2.70
2022-09-17T10:12:16.189Z,2.08
2022-09-17T10:14:46.805Z,1.90
2022-09-17T10:17:25.078Z,2.60
2022-09-17T10:20:22.762Z,2.80
2022-09-17T10:22:51.823Z,1.98
2022-09-17T10:25:30.789Z,2.20
2022-09-17T10:28:01.735Z,2.30
2022-09-17T10:30:30.915Z,2.47
2022-09-17T10:33:25.729Z,2.30
2022-09-17T10:36:04.304Z,2.50
2022-09-17T10:38:39.396Z,2.90
2022-09-17T10:41:17.315Z,2.33
2022-09-17T10:43:46.738Z,1.92
2022-09-17T10:46:27.548Z,1.88
2022-09-17T10:49:12.572Z,2.17
2022-09-17T10:51:41.428Z,1.80
2022-09-17T10:54:43.788Z,1.38
2022-09-17T10:57:24.518Z,2.35
2022-09-17T11:00:09.714Z,1.95
2022-09-17T11:03:28.507Z,2.40
2022-09-17T11:06:21.614Z,1.98
2022-09-17T11:09:05.803Z,1.77
2022-09-17T11:11:52.685Z,1.63
2022-09-17T11:14:51.665Z,1.65
2022-09-17T11:18:02.472Z,1.80
2022-09-17T11:20:52.663Z,2.03
2022-09-17T11:23:43.493Z,2.53
2022-09-17T11:26:24.809Z,2.15
2022-09-17T11:29:17.611Z,2.15
2022-09-17T11:31:58.374Z,1.48
2022-09-17T11:34:36.000Z,2.20
2022-09-17T11:37:12.020Z,1.58
2022-09-17T11:39:50.885Z,1.58
2022-09-17T11:42:24.023Z,2.22
2022-09-17T11:44:56.812Z,2.00
2022-09-17T11:47:33.678Z,2.17
2022-09-17T11:50:11.016Z,1.92
2022-09-17T11:52:44.841Z,1.92
2022-09-17T11:55:24.975Z,1.83
2022-09-17T11:58:01.634Z,2.30
2022-09-17T12:00:32.765Z,3.15
2022-09-17T12:03:10.712Z,1.95
2022-09-17T12:05:46.804Z,1.38
2022-09-17T12:08:22.064Z,1.80
2022-09-17T12:11:02.408Z,1.80
2022-09-17T12:13:41.005Z,2.08
2022-09-17T12:16:21.068Z,2.05
2022-09-17T12:19:03.682Z,1.40
2022-09-17T12:21:38.581Z,1.52
2022-09-17T12:24:20.520Z,1.75
2022-09-17T12:27:13.962Z,1.75
2022-09-17T12:30:10.456Z,1.00
2022-09-17T12:33:17.347Z,1.10
2022-09-17T12:36:22.461Z,1.25
2022-09-17T12:39:13.249Z,0.52
2022-09-17T12:42:00.516Z,1.00
2022-09-17T12:44:56.804Z,1.00
2022-09-17T12:48:23.416Z,0.88
2022-09-17T12:51:08.692Z,1.08
2022-09-17T12:53:43.465Z,0.80
2022-09-17T12:56:26.086Z,1.02
2022-09-17T12:59:10.906Z,0.80
2022-09-17T13:01:52.111Z,1.10
2022-09-17T13:05:02.209Z,1.05
2022-09-17T13:08:20.892Z,1.17
2022-09-17T13:11:24.213Z,1.42
2022-09-17T13:14:02.675Z,0.90
2022-09-17T13:16:43.710Z,1.10
2022-09-17T13:19:40.447Z,1.05
2022-09-17T13:22:17.396Z,1.63
2022-09-17T13:24:48.070Z,1.20
2022-09-17T13:27:26.048Z,1.65
2022-09-17T13:30:02.147Z,1.42
2022-09-17T13:32:52.147Z,1.30
2022-09-17T13:35:52.213Z,1.10
2022-09-17T13:38:24.152Z,1.27
2022-09-17T13:40:53.855Z,1.05
2022-09-17T13:43:28.058Z,1.27
2022-09-17T13:46:23.991Z,1.23
2022-09-17T13:49:00.445Z,1.20
2022-09-17T13:51:52.590Z,0.68
2022-09-17T13:54:24.394Z,0.30
2022-09-17T13:57:13.506Z,0.90
2022-09-17T13:59:55.913Z,0.60
2022-09-17T14:02:39.163Z,0.73
2022-09-17T14:05:33.614Z,0.52
2022-09-17T14:08:49.847Z,0.73
2022-09-17T14:11:38.777Z,0.60
2022-09-17T14:14:50.396Z,1.00
2022-09-17T14:17:52.867Z,1.00
2022-09-17T14:20:23.447Z,0.98
2022-09-17T14:22:58.396Z,0.93
2022-09-17T14:25:38.701Z,0.80
2022-09-17T14:28:19.824Z,1.00
2022-09-17T14:30:48.025Z,0.65
2022-09-17T14:33:21.792Z,0.68
2022-09-17T14:35:55.446Z,0.73
2022-09-17T14:38:29.681Z,0.43
2022-09-17T14:41:05.213Z,0.75
2022-09-17T14:43:44.830Z,1.00
2022-09-17T14:46:21.460Z,1.55
2022-09-17T14:48:50.460Z,1.88
2022-09-17T14:51:29.000Z,1.33
2022-09-17T14:54:20.317Z,1.92
2022-09-17T14:56:58.599Z,1.52
2022-09-17T14:59:50.028Z,1.30
2022-09-17T15:02:38.248Z,1.52
2022-09-17T15:05:25.912Z,1.50
2022-09-17T15:08:07.496Z,1.52
2022-09-17T15:10:40.094Z,1.27
2022-09-17T15:13:16.094Z,0.88
2022-09-17T15:16:03.759Z,1.10
2022-09-17T15:18:41.170Z,1.00
2022-09-17T15:21:28.118Z,0.85
2022-09-17T15:24:02.945Z,0.90
2022-09-17T15:26:38.596Z,0.93
2022-09-17T15:29:11.352Z,0.75
2022-09-17T15:31:39.570Z,1.38
2022-09-17T15:34:07.981Z,1.25
2022-09-17T15:36:36.093Z,1.25
2022-09-17T15:39:33.239Z,1.27
2022-09-17T15:42:01.316Z,1.10
2022-09-17T15:44:31.162Z,1.10
2022-09-17T15:47:37.315Z,1.45
2022-09-17T15:50:15.153Z,1.50
2022-09-17T15:52:44.180Z,2.40
2022-09-17T15:55:37.783Z,1.50
2022-09-17T15:58:21.522Z,1.55
2022-09-17T16:01:40.219Z,0.85
2022-09-17T16:04:28.206Z,0.82
2022-09-17T16:07:16.830Z,0.93
2022-09-17T16:09:49.973Z,1.17
2022-09-17T16:12:22.768Z,1.33
2022-09-17T16:14:54.323Z,1.35
2022-09-17T16:17:35.421Z,1.02
2022-09-17T16:20:21.904Z,0.95
2022-09-17T16:22:51.068Z,1.10
2022-09-17T16:25:23.947Z,0.80
2022-09-17T16:27:58.782Z,0.80
2022-09-17T16:30:26.998Z,0.80
2022-09-17T16:32:55.279Z,1.13
2022-09-17T16:35:25.767Z,0.90
2022-09-17T16:37:56.558Z,0.70
2022-09-17T16:40:28.949Z,0.70
2022-09-17T16:43:02.042Z,1.17
2022-09-17T16:45:30.682Z,0.60
2022-09-17T16:47:59.367Z,0.73
2022-09-17T16:50:28.205Z,1.40
2022-09-17T16:52:56.351Z,0.90
2022-09-17T16:55:24.550Z,0.80
2022-09-17T16:57:52.995Z,0.63
2022-09-17T17:00:22.625Z,0.75
2022-09-17T17:02:56.356Z,1.10
2022-09-17T17:05:27.074Z,0.90
2022-09-17T17:07:56.346Z,0.80
2022-09-17T17:10:26.443Z,0.70
2022-09-17T17:12:54.686Z,0.98
2022-09-17T17:15:24.617Z,1.00
2022-09-17T17:17:52.837Z,1.00
2022-09-17T17:20:21.574Z,0.88
2022-09-17T17:22:50.638Z,1.10
2022-09-17T17:25:19.042Z,0.82
2022-09-17T17:27:47.148Z,0.75
2022-09-17T17:30:17.360Z,0.65
2022-09-17T17:32:52.527Z,0.82
2022-09-17T17:35:21.774Z,0.60
2022-09-17T17:37:50.647Z,0.40
2022-09-17T17:40:19.049Z,0.40
2022-09-17T17:42:52.774Z,0.68
2022-09-17T17:45:21.042Z,1.45
2022-09-17T17:47:50.736Z,1.45
2022-09-17T17:50:18.855Z,2.40
2022-09-17T17:52:48.591Z,1.27
2022-09-17T17:55:17.701Z,0.28
2022-09-17T17:57:45.916Z,0.45
2022-09-17T18:00:17.439Z,0.82
2022-09-17T18:02:45.782Z,0.50
2022-09-17T18:05:15.506Z,0.68
2022-09-17T18:07:43.701Z,0.30
2022-09-17T18:10:12.992Z,0.85
2022-09-17T18:12:41.069Z,1.77
2022-09-17T18:15:09.812Z,1.77
2022-09-17T18:17:37.911Z,1.80
2022-09-17T18:20:07.001Z,1.70
2022-09-17T18:22:36.952Z,1.38
2022-09-17T18:25:05.742Z,0.75
2022-09-17T18:27:33.863Z,1.17
2022-09-17T18:30:01.987Z,1.30
2022-09-17T18:32:30.134Z,2.15
2022-09-17T18:34:58.299Z,2.97
2022-09-17T18:37:26.395Z,4.00
2022-09-17T18:39:58.834Z,3.58
2022-09-17T18:42:27.751Z,2.28
2022-09-17T18:44:55.991Z,0.63
2022-09-17T18:47:24.249Z,0.95
2022-09-17T18:49:52.387Z,1.20
2022-09-17T18:52:20.498Z,0.70
2022-09-17T18:54:48.638Z,0.77
2022-09-17T18:57:18.160Z,0.80
2022-09-17T18:59:46.293Z,0.70
2022-09-17T19:02:14.702Z,0.90
2022-09-17T19:04:43.037Z,0.50
2022-09-17T19:07:11.243Z,0.65
2022-09-17T19:09:39.335Z,0.60
2022-09-17T19:12:07.670Z,0.70
2022-09-17T19:14:37.170Z,0.95
2022-09-17T19:17:05.342Z,0.60
2022-09-17T19:19:33.474Z,0.70
2022-09-17T19:22:01.590Z,0.90
2022-09-17T19:24:29.693Z,0.75
2022-09-17T19:26:58.778Z,0.98
2022-09-17T19:29:27.744Z,0.88
2022-09-17T19:31:57.479Z,1.20
2022-09-17T19:34:25.680Z,1.73
2022-09-17T19:36:53.797Z,2.23
2022-09-17T19:39:21.864Z,1.70
2022-09-17T19:41:50.049Z,1.77
2022-09-17T19:44:18.385Z,1.10
2022-09-17T19:46:48.391Z,1.30
2022-09-17T19:49:18.153Z,0.75
2022-09-17T19:51:46.684Z,0.95
2022-09-17T19:54:14.794Z,0.70
2022-09-17T19:56:42.934Z,0.70
2022-09-17T19:59:11.342Z,0.77
2022-09-17T20:01:39.573Z,0.82
2022-09-17T20:04:07.978Z,0.40
2022-09-17T20:06:37.450Z,0.47
2022-09-17T20:09:05.577Z,0.40
2022-09-17T20:11:33.900Z,0.57
2022-09-17T20:14:06.455Z,0.50
2022-09-17T20:16:37.122Z,0.60
2022-09-17T20:19:06.151Z,0.87
2022-09-17T20:21:35.286Z,0.40
2022-09-17T20:24:07.824Z,0.50
2022-09-17T20:26:36.349Z,0.50
2022-09-17T20:29:04.773Z,0.40
2022-09-17T20:31:33.620Z,0.55
2022-09-17T20:34:04.449Z,0.52
2022-09-17T20:36:35.981Z,0.60
2022-09-17T20:39:12.300Z,0.70
2022-09-17T20:41:43.050Z,0.50
2022-09-17T20:44:11.275Z,0.80
2022-09-17T20:46:39.606Z,0.40
2022-09-17T20:49:07.776Z,0.73
2022-09-17T20:51:36.239Z,0.40
2022-09-17T20:54:06.191Z,0.60
2022-09-17T20:56:35.996Z,0.45
2022-09-17T20:59:14.283Z,0.95
2022-09-17T21:01:45.729Z,0.50
2022-09-17T21:04:19.845Z,0.50
2022-09-17T21:06:51.768Z,0.80
2022-09-17T21:09:21.876Z,0.47
2022-09-17T21:11:50.597Z,0.75
2022-09-17T21:14:20.498Z,0.68
2022-09-17T21:16:48.933Z,0.65
2022-09-17T21:19:17.159Z,0.43
2022-09-17T21:21:45.574Z,1.08
2022-09-17T21:24:13.737Z,0.43
2022-09-17T21:26:45.663Z,0.83
2022-09-17T21:29:13.937Z,0.68
2022-09-17T21:31:42.106Z,1.17
2022-09-17T21:34:13.779Z,0.68
2022-09-17T21:36:44.182Z,1.02
2022-09-17T21:39:15.518Z,0.80
2022-09-17T21:41:46.012Z,0.40
2022-09-17T21:44:15.572Z,0.47
2022-09-17T21:46:44.118Z,1.08
2022-09-17T21:49:13.789Z,0.52
2022-09-17T21:51:43.690Z,0.80
2022-09-17T21:54:15.750Z,0.57
2022-09-17T21:56:46.308Z,0.70
2022-09-17T21:59:16.913Z,0.85
2022-09-17T22:01:47.940Z,1.10
2022-09-17T22:04:19.219Z,0.60
2022-09-17T22:06:49.333Z,0.50
2022-09-17T22:09:21.030Z,0.60
2022-09-17T22:11:51.807Z,0.60
2022-09-17T22:14:23.412Z,0.87
2022-09-17T22:16:54.446Z,0.57
2022-09-17T22:19:25.053Z,0.60
2022-09-17T22:21:55.964Z,0.50
2022-09-17T22:24:25.319Z,0.60
2022-09-17T22:26:58.059Z,0.57
2022-09-17T22:29:31.329Z,0.50
2022-09-17T22:31:59.587Z,0.52
2022-09-17T22:34:27.707Z,0.60
2022-09-17T22:36:55.805Z,1.20
2022-09-17T22:39:23.981Z,0.70
2022-09-17T22:41:52.254Z,0.57
2022-09-17T22:44:22.102Z,0.97
2022-09-17T22:46:52.680Z,1.00
2022-09-17T22:49:20.971Z,0.80
2022-09-17T22:51:49.229Z,0.87
2022-09-17T22:54:19.358Z,1.10
2022-09-17T22:56:48.719Z,0.75
2022-09-17T22:59:18.673Z,0.70
2022-09-17T23:01:48.306Z,0.97
2022-09-17T23:04:16.630Z,0.83
2022-09-17T23:06:44.693Z,0.47
2022-09-17T23:09:14.537Z,0.40
2022-09-17T23:11:42.860Z,0.82
2022-09-17T23:14:13.734Z,0.60
2022-09-17T23:16:44.689Z,0.83
2022-09-17T23:19:15.569Z,0.68
2022-09-17T23:21:44.703Z,0.80
2022-09-17T23:24:20.167Z,0.90
2022-09-17T23:26:49.315Z,1.07
2022-09-17T23:29:18.293Z,1.03
2022-09-17T23:31:46.370Z,0.80
2022-09-17T23:34:15.826Z,1.00
2022-09-17T23:36:43.904Z,0.67
2022-09-17T23:39:13.139Z,0.70
2022-09-17T23:41:45.323Z,1.00
2022-09-17T23:44:16.101Z,1.00
2022-09-17T23:46:46.579Z,1.13
2022-09-17T23:49:16.681Z,1.63
2022-09-17T23:51:45.104Z,1.05
2022-09-17T23:54:13.235Z,0.70
2022-09-17T23:56:41.366Z,0.83
2022-09-17T23:59:11.183Z,0.80
